KQA8605 HKMO-HKJK
Flight info
| Callsign | KQA8605 |
|---|---|
| Flight time | 0h 39m |
| Altitude | 24000 |
| Route | NERAG1A UTIKU Q315 UTEPI UTEPI2C |
| Aircraft | B788/H-SDE1E2E3FGHIJ2J3J4J5M1RWXY/LB1D1 |
Departure
| Time | 2026-04-30 10:58 |
|---|---|
| Airport | Moi International Airport (HKMO) |
Arrival
| Time | 2026-04-30 11:38 |
|---|---|
| Airport | Jomo Kenyatta International Airport (HKJK) |
| Time | Latitude | Longitude | Altitude | Speed | Heading |
|---|---|---|---|---|---|
| 2026-04-30 10:09 | -4.03201 | 39.60182 | 208 ft | 0 kts | 121° |
| 2026-04-30 10:40 | -4.03199 | 39.60182 | 208 ft | 1 kts | 123° |
| 2026-04-30 10:40 | -4.03197 | 39.60179 | 208 ft | 3 kts | 111° |
| 2026-04-30 10:40 | -4.03197 | 39.60169 | 216 ft | 2 kts | 107° |
| 2026-04-30 10:41 | -4.03192 | 39.60151 | 216 ft | 3 kts | 97° |
| 2026-04-30 10:41 | -4.03191 | 39.60132 | 212 ft | 3 kts | 79° |
| 2026-04-30 10:41 | -4.03196 | 39.60114 | 216 ft | 3 kts | 57° |
| 2026-04-30 10:41 | -4.03208 | 39.60102 | 216 ft | 3 kts | 32° |
| 2026-04-30 10:42 | -4.03211 | 39.60099 | 219 ft | 1 kts | 29° |
| 2026-04-30 10:45 | -4.03205 | 39.60103 | 215 ft | 2 kts | 29° |
| 2026-04-30 10:45 | -4.03186 | 39.60114 | 213 ft | 4 kts | 29° |
| 2026-04-30 10:45 | -4.03154 | 39.60131 | 212 ft | 6 kts | 29° |
| 2026-04-30 10:46 | -4.03121 | 39.60144 | 218 ft | 5 kts | 15° |
| 2026-04-30 10:46 | -4.03108 | 39.60145 | 214 ft | 1 kts | 355° |
| 2026-04-30 10:46 | -4.03094 | 39.60143 | 214 ft | 2 kts | 350° |
| 2026-04-30 10:46 | -4.03085 | 39.60140 | 214 ft | 1 kts | 333° |
| 2026-04-30 10:47 | -4.03075 | 39.60134 | 218 ft | 2 kts | 323° |
| 2026-04-30 10:47 | -4.03064 | 39.60122 | 219 ft | 2 kts | 313° |
| 2026-04-30 10:47 | -4.03053 | 39.60106 | 218 ft | 4 kts | 303° |
| 2026-04-30 10:47 | -4.03034 | 39.60077 | 219 ft | 6 kts | 303° |
| 2026-04-30 10:48 | -4.03011 | 39.60036 | 220 ft | 8 kts | 298° |
| 2026-04-30 10:48 | -4.02982 | 39.59984 | 214 ft | 9 kts | 299° |
| 2026-04-30 10:48 | -4.02948 | 39.59952 | 215 ft | 3 kts | 336° |
| 2026-04-30 10:48 | -4.02935 | 39.59949 | 214 ft | 2 kts | 348° |
| 2026-04-30 10:49 | -4.02917 | 39.59948 | 212 ft | 2 kts | 0° |
| 2026-04-30 10:49 | -4.02909 | 39.59949 | 210 ft | 1 kts | 14° |
| 2026-04-30 10:49 | -4.02898 | 39.59952 | 215 ft | 2 kts | 15° |
| 2026-04-30 10:49 | -4.02891 | 39.59956 | 216 ft | 2 kts | 24° |
| 2026-04-30 10:50 | -4.02875 | 39.59963 | 214 ft | 3 kts | 24° |
| 2026-04-30 10:50 | -4.02849 | 39.59975 | 217 ft | 5 kts | 27° |
| 2026-04-30 10:50 | -4.02818 | 39.59992 | 220 ft | 6 kts | 30° |
| 2026-04-30 10:50 | -4.02780 | 39.60014 | 217 ft | 7 kts | 31° |
| 2026-04-30 10:51 | -4.02733 | 39.60043 | 220 ft | 9 kts | 31° |
| 2026-04-30 10:51 | -4.02675 | 39.60075 | 219 ft | 10 kts | 28° |
| 2026-04-30 10:51 | -4.02605 | 39.60112 | 220 ft | 12 kts | 29° |
| 2026-04-30 10:51 | -4.02526 | 39.60158 | 216 ft | 14 kts | 30° |
| 2026-04-30 10:52 | -4.02435 | 39.60209 | 220 ft | 16 kts | 30° |
| 2026-04-30 10:52 | -4.02334 | 39.60266 | 213 ft | 18 kts | 29° |
| 2026-04-30 10:52 | -4.02220 | 39.60331 | 214 ft | 19 kts | 29° |
| 2026-04-30 10:52 | -4.02098 | 39.60399 | 217 ft | 21 kts | 28° |
| 2026-04-30 10:53 | -4.01966 | 39.60471 | 220 ft | 22 kts | 28° |
| 2026-04-30 10:53 | -4.01827 | 39.60549 | 220 ft | 23 kts | 30° |
| 2026-04-30 10:53 | -4.01682 | 39.60632 | 220 ft | 25 kts | 30° |
| 2026-04-30 10:53 | -4.01528 | 39.60715 | 217 ft | 25 kts | 21° |
| 2026-04-30 10:54 | -4.01407 | 39.60721 | 217 ft | 0 kts | 336° |
| 2026-04-30 10:54 | -4.01398 | 39.60717 | 220 ft | 1 kts | 332° |
| 2026-04-30 10:54 | -4.01388 | 39.60711 | 220 ft | 2 kts | 326° |
| 2026-04-30 10:55 | -4.01374 | 39.60699 | 220 ft | 3 kts | 317° |
| 2026-04-30 10:55 | -4.01367 | 39.60689 | 221 ft | 2 kts | 305° |
| 2026-04-30 10:55 | -4.01352 | 39.60669 | 224 ft | 5 kts | 304° |
| 2026-04-30 10:55 | -4.01346 | 39.60646 | 217 ft | 2 kts | 274° |
| 2026-04-30 10:56 | -4.01347 | 39.60636 | 221 ft | 1 kts | 261° |
| 2026-04-30 10:56 | -4.01349 | 39.60627 | 217 ft | 2 kts | 254° |
| 2026-04-30 10:56 | -4.01352 | 39.60621 | 222 ft | 1 kts | 243° |
| 2026-04-30 10:56 | -4.01357 | 39.60612 | 221 ft | 2 kts | 239° |
| 2026-04-30 10:57 | -4.01362 | 39.60606 | 219 ft | 0 kts | 226° |
| 2026-04-30 10:57 | -4.01366 | 39.60603 | 218 ft | 0 kts | 220° |
| 2026-04-30 10:57 | -4.01368 | 39.60602 | 222 ft | 0 kts | 211° |
| 2026-04-30 10:57 | -4.01374 | 39.60599 | 220 ft | 3 kts | 211° |
| 2026-04-30 10:58 | -4.01402 | 39.60583 | 215 ft | 23 kts | 208° |
| 2026-04-30 10:58 | -4.01839 | 39.60339 | 219 ft | 120 kts | 210° |
| 2026-04-30 10:58 | -4.02776 | 39.59822 | 567 ft | 165 kts | 202° |
| 2026-04-30 10:58 | -4.03765 | 39.59242 | 1468 ft | 158 kts | 204° |
| 2026-04-30 10:59 | -4.04642 | 39.58528 | 2036 ft | 179 kts | 227° |
| 2026-04-30 10:59 | -4.05151 | 39.57271 | 2208 ft | 224 kts | 268° |
| 2026-04-30 10:59 | -4.04653 | 39.55678 | 2642 ft | 255 kts | 291° |
| 2026-04-30 10:59 | -4.03984 | 39.54045 | 3306 ft | 268 kts | 285° |
| 2026-04-30 11:00 | -4.03491 | 39.52210 | 4388 ft | 265 kts | 278° |
| 2026-04-30 11:00 | -4.03126 | 39.50376 | 5325 ft | 272 kts | 279° |
| 2026-04-30 11:00 | -4.02717 | 39.48501 | 5919 ft | 286 kts | 280° |
| 2026-04-30 11:00 | -4.02249 | 39.46565 | 6581 ft | 280 kts | 281° |
| 2026-04-30 11:01 | -4.01800 | 39.44685 | 7510 ft | 283 kts | 281° |
| 2026-04-30 11:01 | -4.01353 | 39.42735 | 8382 ft | 286 kts | 281° |
| 2026-04-30 11:01 | -4.00903 | 39.40780 | 9260 ft | 290 kts | 282° |
| 2026-04-30 11:01 | -4.00412 | 39.38807 | 10087 ft | 294 kts | 289° |
| 2026-04-30 11:02 | -3.99309 | 39.37052 | 10397 ft | 315 kts | 315° |
| 2026-04-30 11:02 | -3.97695 | 39.35430 | 10516 ft | 343 kts | 315° |
| 2026-04-30 11:02 | -3.95987 | 39.33693 | 11062 ft | 352 kts | 314° |
| 2026-04-30 11:02 | -3.94301 | 39.31946 | 11899 ft | 355 kts | 314° |
| 2026-04-30 11:03 | -3.92546 | 39.30125 | 12683 ft | 359 kts | 314° |
| 2026-04-30 11:03 | -3.90821 | 39.28349 | 13471 ft | 363 kts | 314° |
| 2026-04-30 11:03 | -3.89053 | 39.26530 | 14207 ft | 367 kts | 315° |
| 2026-04-30 11:04 | -3.85456 | 39.22818 | 15556 ft | 377 kts | 314° |
| 2026-04-30 11:04 | -3.83611 | 39.20917 | 16224 ft | 381 kts | 314° |
| 2026-04-30 11:04 | -3.81769 | 39.19018 | 16870 ft | 386 kts | 314° |
| 2026-04-30 11:04 | -3.79882 | 39.17074 | 17517 ft | 391 kts | 314° |
| 2026-04-30 11:05 | -3.77967 | 39.15100 | 18153 ft | 396 kts | 314° |
| 2026-04-30 11:05 | -3.76049 | 39.13122 | 18698 ft | 400 kts | 314° |
| 2026-04-30 11:05 | -3.74111 | 39.11125 | 19205 ft | 406 kts | 314° |
| 2026-04-30 11:05 | -3.72138 | 39.09091 | 19739 ft | 410 kts | 314° |
| 2026-04-30 11:06 | -3.70137 | 39.07029 | 20250 ft | 416 kts | 314° |
| 2026-04-30 11:06 | -3.68105 | 39.04935 | 20782 ft | 420 kts | 314° |
| 2026-04-30 11:06 | -3.66077 | 39.02845 | 21473 ft | 420 kts | 314° |
| 2026-04-30 11:06 | -3.64039 | 39.00746 | 22126 ft | 421 kts | 314° |
| 2026-04-30 11:07 | -3.62002 | 38.98647 | 22797 ft | 420 kts | 314° |
| 2026-04-30 11:07 | -3.59962 | 38.96546 | 23466 ft | 420 kts | 314° |
| 2026-04-30 11:07 | -3.57918 | 38.94440 | 23913 ft | 424 kts | 314° |
| 2026-04-30 11:07 | -3.55847 | 38.92307 | 23967 ft | 429 kts | 314° |
| 2026-04-30 11:08 | -3.53823 | 38.90222 | 23967 ft | 420 kts | 314° |
| 2026-04-30 11:08 | -3.51778 | 38.88116 | 23980 ft | 419 kts | 314° |
| 2026-04-30 11:08 | -3.49752 | 38.86030 | 23987 ft | 419 kts | 314° |
| 2026-04-30 11:08 | -3.47727 | 38.83942 | 23985 ft | 418 kts | 314° |
| 2026-04-30 11:09 | -3.45704 | 38.81850 | 23985 ft | 418 kts | 314° |
| 2026-04-30 11:09 | -3.43686 | 38.79761 | 23991 ft | 417 kts | 314° |
| 2026-04-30 11:09 | -3.41669 | 38.77678 | 23985 ft | 418 kts | 314° |
| 2026-04-30 11:09 | -3.39646 | 38.75591 | 23992 ft | 417 kts | 314° |
| 2026-04-30 11:10 | -3.37622 | 38.73499 | 23991 ft | 417 kts | 314° |
| 2026-04-30 11:10 | -3.35629 | 38.71439 | 23990 ft | 417 kts | 314° |
| 2026-04-30 11:10 | -3.33645 | 38.69390 | 23991 ft | 417 kts | 314° |
| 2026-04-30 11:10 | -3.31600 | 38.67278 | 23992 ft | 417 kts | 314° |
| 2026-04-30 11:11 | -3.29568 | 38.65180 | 23993 ft | 416 kts | 314° |
| 2026-04-30 11:11 | -3.27560 | 38.63105 | 23994 ft | 416 kts | 314° |
| 2026-04-30 11:11 | -3.25570 | 38.61051 | 24003 ft | 416 kts | 314° |
| 2026-04-30 11:11 | -3.23560 | 38.58975 | 23995 ft | 415 kts | 314° |
| 2026-04-30 11:12 | -3.21530 | 38.56879 | 23998 ft | 415 kts | 314° |
| 2026-04-30 11:12 | -3.19549 | 38.54834 | 23998 ft | 414 kts | 314° |
| 2026-04-30 11:12 | -3.17544 | 38.52764 | 23996 ft | 414 kts | 314° |
| 2026-04-30 11:12 | -3.15546 | 38.50701 | 23999 ft | 413 kts | 314° |
| 2026-04-30 11:13 | -3.13544 | 38.48634 | 24000 ft | 413 kts | 314° |
| 2026-04-30 11:13 | -3.11550 | 38.46576 | 23997 ft | 413 kts | 314° |
| 2026-04-30 11:13 | -3.09570 | 38.44533 | 24005 ft | 412 kts | 314° |
| 2026-04-30 11:13 | -3.07551 | 38.42448 | 24009 ft | 412 kts | 314° |
| 2026-04-30 11:14 | -3.05579 | 38.40413 | 24007 ft | 412 kts | 314° |
| 2026-04-30 11:14 | -3.03591 | 38.38361 | 24011 ft | 412 kts | 314° |
| 2026-04-30 11:14 | -3.01576 | 38.36283 | 24010 ft | 412 kts | 314° |
| 2026-04-30 11:14 | -2.99611 | 38.34255 | 24013 ft | 412 kts | 314° |
| 2026-04-30 11:15 | -2.97612 | 38.32192 | 24014 ft | 412 kts | 314° |
| 2026-04-30 11:15 | -2.95623 | 38.30141 | 24016 ft | 412 kts | 314° |
| 2026-04-30 11:15 | -2.93623 | 38.28077 | 24019 ft | 412 kts | 314° |
| 2026-04-30 11:15 | -2.91630 | 38.26021 | 24020 ft | 412 kts | 314° |
| 2026-04-30 11:16 | -2.89635 | 38.23962 | 24031 ft | 423 kts | 314° |
| 2026-04-30 11:16 | -2.87552 | 38.21813 | 24039 ft | 439 kts | 314° |
| 2026-04-30 11:16 | -2.85386 | 38.19579 | 24043 ft | 455 kts | 314° |
| 2026-04-30 11:16 | -2.83142 | 38.17265 | 24046 ft | 469 kts | 314° |
| 2026-04-30 11:17 | -2.80840 | 38.14890 | 24049 ft | 482 kts | 314° |
| 2026-04-30 11:17 | -2.78477 | 38.12453 | 24056 ft | 494 kts | 314° |
| 2026-04-30 11:17 | -2.76065 | 38.09966 | 24057 ft | 505 kts | 314° |
| 2026-04-30 11:17 | -2.73601 | 38.07426 | 24061 ft | 511 kts | 314° |
| 2026-04-30 11:18 | -2.71115 | 38.04863 | 24065 ft | 512 kts | 314° |
| 2026-04-30 11:18 | -2.66160 | 37.99754 | 24069 ft | 513 kts | 314° |
| 2026-04-30 11:18 | -2.63699 | 37.97217 | 24069 ft | 513 kts | 314° |
| 2026-04-30 11:19 | -2.61227 | 37.94669 | 24072 ft | 513 kts | 314° |
| 2026-04-30 11:19 | -2.58742 | 37.92107 | 24074 ft | 513 kts | 314° |
| 2026-04-30 11:19 | -2.56247 | 37.89536 | 24079 ft | 513 kts | 314° |
| 2026-04-30 11:19 | -2.53766 | 37.86979 | 24080 ft | 513 kts | 314° |
| 2026-04-30 11:20 | -2.51288 | 37.84424 | 24084 ft | 513 kts | 314° |
| 2026-04-30 11:20 | -2.48828 | 37.81889 | 24085 ft | 513 kts | 314° |
| 2026-04-30 11:20 | -2.46347 | 37.79333 | 24090 ft | 512 kts | 314° |
| 2026-04-30 11:20 | -2.43863 | 37.76773 | 24090 ft | 512 kts | 314° |
| 2026-04-30 11:21 | -2.41390 | 37.74225 | 24089 ft | 512 kts | 314° |
| 2026-04-30 11:21 | -2.38912 | 37.71672 | 24096 ft | 511 kts | 314° |
| 2026-04-30 11:21 | -2.36444 | 37.69129 | 24096 ft | 511 kts | 314° |
| 2026-04-30 11:21 | -2.33954 | 37.66564 | 24095 ft | 511 kts | 314° |
| 2026-04-30 11:22 | -2.31486 | 37.64022 | 24095 ft | 510 kts | 314° |
| 2026-04-30 11:22 | -2.29012 | 37.61474 | 24103 ft | 511 kts | 314° |
| 2026-04-30 11:22 | -2.26544 | 37.58931 | 24103 ft | 511 kts | 314° |
| 2026-04-30 11:22 | -2.24093 | 37.56407 | 24106 ft | 511 kts | 314° |
| 2026-04-30 11:23 | -2.21614 | 37.53854 | 24111 ft | 511 kts | 314° |
| 2026-04-30 11:23 | -2.19136 | 37.51301 | 24118 ft | 511 kts | 314° |
| 2026-04-30 11:23 | -2.14211 | 37.46230 | 24130 ft | 511 kts | 314° |
| 2026-04-30 11:24 | -2.11731 | 37.43676 | 24135 ft | 511 kts | 314° |
| 2026-04-30 11:24 | -2.09289 | 37.41160 | 24135 ft | 511 kts | 313° |
| 2026-04-30 11:24 | -2.06786 | 37.38528 | 24149 ft | 511 kts | 314° |
| 2026-04-30 11:25 | -2.00971 | 37.34579 | 24160 ft | 513 kts | 337° |
| 2026-04-30 11:25 | -1.97659 | 37.33451 | 23409 ft | 499 kts | 343° |
| 2026-04-30 11:25 | -1.90920 | 37.31881 | 21607 ft | 497 kts | 347° |
| 2026-04-30 11:26 | -1.84180 | 37.30006 | 20299 ft | 486 kts | 344° |
| 2026-04-30 11:26 | -1.80999 | 37.29166 | 19678 ft | 470 kts | 346° |
| 2026-04-30 11:26 | -1.77837 | 37.28394 | 19063 ft | 455 kts | 346° |
| 2026-04-30 11:27 | -1.74859 | 37.27627 | 18493 ft | 442 kts | 345° |
| 2026-04-30 11:27 | -1.71923 | 37.26831 | 17877 ft | 429 kts | 345° |
| 2026-04-30 11:27 | -1.69087 | 37.26079 | 17346 ft | 416 kts | 345° |
| 2026-04-30 11:27 | -1.66332 | 37.25369 | 16796 ft | 404 kts | 346° |
| 2026-04-30 11:28 | -1.61025 | 37.23983 | 15786 ft | 383 kts | 345° |
| 2026-04-30 11:28 | -1.58521 | 37.23324 | 15314 ft | 374 kts | 346° |
| 2026-04-30 11:28 | -1.56023 | 37.22672 | 14818 ft | 365 kts | 346° |
| 2026-04-30 11:29 | -1.53791 | 37.22090 | 14411 ft | 358 kts | 346° |
| 2026-04-30 11:29 | -1.51392 | 37.21462 | 13939 ft | 352 kts | 346° |
| 2026-04-30 11:29 | -1.46731 | 37.20242 | 13021 ft | 339 kts | 346° |
| 2026-04-30 11:30 | -1.42284 | 37.19079 | 12168 ft | 327 kts | 346° |
| 2026-04-30 11:30 | -1.40071 | 37.18500 | 11751 ft | 328 kts | 346° |
| 2026-04-30 11:30 | -1.37889 | 37.17930 | 11336 ft | 328 kts | 346° |
| 2026-04-30 11:31 | -1.35695 | 37.17355 | 11029 ft | 319 kts | 346° |
| 2026-04-30 11:31 | -1.33616 | 37.16811 | 10905 ft | 302 kts | 346° |
| 2026-04-30 11:31 | -1.31630 | 37.16292 | 10697 ft | 290 kts | 346° |
| 2026-04-30 11:31 | -1.29687 | 37.15783 | 10277 ft | 287 kts | 345° |
| 2026-04-30 11:32 | -1.27855 | 37.15086 | 9962 ft | 278 kts | 338° |
| 2026-04-30 11:32 | -1.26015 | 37.14556 | 9656 ft | 271 kts | 346° |
| 2026-04-30 11:32 | -1.24205 | 37.14097 | 9410 ft | 263 kts | 346° |
| 2026-04-30 11:33 | -1.20715 | 37.13216 | 8925 ft | 260 kts | 346° |
| 2026-04-30 11:33 | -1.18970 | 37.12741 | 8676 ft | 258 kts | 340° |
| 2026-04-30 11:33 | -1.17500 | 37.11708 | 8397 ft | 260 kts | 305° |
| 2026-04-30 11:33 | -1.16943 | 37.10026 | 8208 ft | 258 kts | 267° |
| 2026-04-30 11:34 | -1.17408 | 37.08370 | 8196 ft | 248 kts | 236° |
| 2026-04-30 11:34 | -1.18658 | 37.07221 | 8177 ft | 248 kts | 208° |
| 2026-04-30 11:34 | -1.20309 | 37.06689 | 8217 ft | 251 kts | 191° |
| 2026-04-30 11:34 | -1.21946 | 37.06120 | 8062 ft | 249 kts | 215° |
| 2026-04-30 11:35 | -1.23114 | 37.04871 | 8123 ft | 251 kts | 231° |
| 2026-04-30 11:35 | -1.24158 | 37.03460 | 8024 ft | 256 kts | 233° |
| 2026-04-30 11:35 | -1.25155 | 37.02026 | 7725 ft | 242 kts | 234° |
| 2026-04-30 11:35 | -1.26075 | 37.00647 | 7172 ft | 240 kts | 235° |
| 2026-04-30 11:36 | -1.26995 | 36.99232 | 6401 ft | 249 kts | 234° |
| 2026-04-30 11:36 | -1.28051 | 36.97898 | 5843 ft | 239 kts | 228° |
| 2026-04-30 11:36 | -1.29070 | 36.96667 | 5527 ft | 220 kts | 229° |
| 2026-04-30 11:36 | -1.29921 | 36.95523 | 5405 ft | 195 kts | 231° |
| 2026-04-30 11:37 | -1.30681 | 36.94457 | 5310 ft | 184 kts | 232° |
| 2026-04-30 11:37 | -1.31364 | 36.93546 | 5306 ft | 147 kts | 237° |
| 2026-04-30 11:37 | -1.31843 | 36.92891 | 5313 ft | 82 kts | 233° |
| 2026-04-30 11:37 | -1.32137 | 36.92489 | 5319 ft | 67 kts | 234° |
| 2026-04-30 11:38 | -1.32399 | 36.92131 | 5333 ft | 60 kts | 233° |
| 2026-04-30 11:38 | -1.32627 | 36.91821 | 5341 ft | 53 kts | 234° |
| 2026-04-30 11:38 | -1.32718 | 36.91621 | 5346 ft | 10 kts | 294° |
| 2026-04-30 11:38 | -1.32690 | 36.91594 | 5347 ft | 4 kts | 324° |
| 2026-04-30 11:39 | -1.32669 | 36.91580 | 5348 ft | 3 kts | 328° |
| 2026-04-30 11:39 | -1.32650 | 36.91570 | 5346 ft | 1 kts | 342° |
| 2026-04-30 11:39 | -1.32642 | 36.91569 | 5346 ft | 2 kts | 351° |
| 2026-04-30 11:39 | -1.32617 | 36.91568 | 5346 ft | 6 kts | 359° |
| 2026-04-30 11:40 | -1.32588 | 36.91578 | 5344 ft | 5 kts | 31° |
| 2026-04-30 11:40 | -1.32562 | 36.91605 | 5345 ft | 8 kts | 52° |
| 2026-04-30 11:40 | -1.32520 | 36.91662 | 5344 ft | 13 kts | 53° |
| 2026-04-30 11:40 | -1.32459 | 36.91744 | 5342 ft | 17 kts | 53° |
| 2026-04-30 11:41 | -1.32380 | 36.91849 | 5336 ft | 21 kts | 55° |
| 2026-04-30 11:41 | -1.32287 | 36.91982 | 5336 ft | 25 kts | 55° |
| 2026-04-30 11:41 | -1.32181 | 36.92132 | 5334 ft | 28 kts | 54° |
| 2026-04-30 11:41 | -1.32062 | 36.92296 | 5316 ft | 32 kts | 53° |
| 2026-04-30 11:42 | -1.31921 | 36.92477 | 5314 ft | 34 kts | 54° |
| 2026-04-30 11:42 | -1.31800 | 36.92656 | 5314 ft | 23 kts | 75° |
| 2026-04-30 11:42 | -1.31835 | 36.92725 | 5316 ft | 9 kts | 149° |
| 2026-04-30 11:42 | -1.31891 | 36.92755 | 5314 ft | 10 kts | 152° |
| 2026-04-30 11:43 | -1.31954 | 36.92790 | 5315 ft | 11 kts | 150° |
| 2026-04-30 11:43 | -1.32010 | 36.92834 | 5314 ft | 11 kts | 139° |
| 2026-04-30 11:43 | -1.32048 | 36.92867 | 5319 ft | 0 kts | 139° |
| 2026-04-30 11:48 | -1.32052 | 36.92870 | 5319 ft | 2 kts | 140° |
| 2026-04-30 11:48 | -1.32073 | 36.92887 | 5314 ft | 6 kts | 140° |
| 2026-04-30 11:48 | -1.32112 | 36.92920 | 5315 ft | 9 kts | 140° |
| 2026-04-30 11:49 | -1.32155 | 36.92942 | 5321 ft | 4 kts | 168° |
| 2026-04-30 11:49 | -1.32172 | 36.92942 | 5324 ft | 3 kts | 181° |
| 2026-04-30 11:49 | -1.32189 | 36.92939 | 5327 ft | 1 kts | 197° |
| 2026-04-30 11:49 | -1.32200 | 36.92933 | 5319 ft | 2 kts | 211° |
| 2026-04-30 11:50 | -1.32224 | 36.92918 | 5321 ft | 4 kts | 220° |
| 2026-04-30 11:50 | -1.32251 | 36.92891 | 5326 ft | 8 kts | 224° |
| 2026-04-30 11:50 | -1.32293 | 36.92843 | 5317 ft | 9 kts | 239° |
| 2026-04-30 11:50 | -1.32332 | 36.92782 | 5332 ft | 12 kts | 236° |
| 2026-04-30 11:51 | -1.32386 | 36.92701 | 5334 ft | 16 kts | 236° |
| 2026-04-30 11:51 | -1.32457 | 36.92596 | 5334 ft | 21 kts | 235° |
| 2026-04-30 11:51 | -1.32547 | 36.92470 | 5334 ft | 24 kts | 232° |
| 2026-04-30 11:51 | -1.32654 | 36.92336 | 5335 ft | 25 kts | 233° |
| 2026-04-30 11:52 | -1.32740 | 36.92225 | 5334 ft | 17 kts | 225° |
| 2026-04-30 11:52 | -1.32825 | 36.92219 | 5335 ft | 10 kts | 143° |
| 2026-04-30 11:52 | -1.32883 | 36.92248 | 5335 ft | 9 kts | 171° |
| 2026-04-30 11:52 | -1.32934 | 36.92236 | 5336 ft | 7 kts | 203° |
| 2026-04-30 11:53 | -1.32989 | 36.92221 | 5333 ft | 10 kts | 193° |
| 2026-04-30 11:53 | -1.33064 | 36.92214 | 5330 ft | 12 kts | 180° |
| 2026-04-30 11:53 | -1.33150 | 36.92231 | 5332 ft | 13 kts | 157° |
| 2026-04-30 11:53 | -1.33201 | 36.92265 | 5336 ft | 1 kts | 110° |
| 2026-04-30 11:54 | -1.33201 | 36.92272 | 5330 ft | 3 kts | 94° |
| 2026-04-30 11:54 | -1.33198 | 36.92289 | 5335 ft | 1 kts | 68° |
| 2026-04-30 11:54 | -1.33190 | 36.92303 | 5336 ft | 3 kts | 53° |
| 2026-04-30 11:54 | -1.33180 | 36.92317 | 5331 ft | 5 kts | 55° |
| 2026-04-30 11:55 | -1.33173 | 36.92328 | 5335 ft | 0 kts | 56° |